Aviation Digital Data Service (ADDS)

Output produced by METARs form (0211 UTC 28 August 2016)
found at http://www.aviationweather.gov/adds/metars/
 
KWWD 280156Z AUTO 06006KT 10SM 23/22 A3021 RMK AO2 SLP231 T02330222 $